createdAt,value
2023-12-18T00:01:02.790Z,1.20
2023-12-18T00:03:31.339Z,1.30
2023-12-18T00:05:58.774Z,1.40
2023-12-18T00:08:26.110Z,1.30
2023-12-18T00:10:53.762Z,1.10
2023-12-18T00:13:21.025Z,1.20
2023-12-18T00:15:48.426Z,1.20
2023-12-18T00:18:16.021Z,1.20
2023-12-18T00:20:43.389Z,1.00
2023-12-18T00:23:10.655Z,1.00
2023-12-18T00:25:39.473Z,1.00
2023-12-18T00:28:07.142Z,0.90
2023-12-18T00:30:34.659Z,0.90
2023-12-18T00:33:02.591Z,1.00
2023-12-18T00:35:29.867Z,1.00
2023-12-18T00:37:57.289Z,1.00
2023-12-18T00:40:24.532Z,0.60
2023-12-18T00:42:52.061Z,0.80
2023-12-18T00:45:19.402Z,0.90
2023-12-18T00:47:46.644Z,1.00
2023-12-18T00:50:14.145Z,0.90
2023-12-18T00:52:41.440Z,0.90
2023-12-18T00:55:09.006Z,0.90
2023-12-18T00:57:36.261Z,0.80
2023-12-18T01:00:03.968Z,0.80
2023-12-18T01:02:31.874Z,0.90
2023-12-18T01:04:59.311Z,0.80
2023-12-18T01:07:26.570Z,0.90
2023-12-18T01:09:57.654Z,0.90
2023-12-18T01:12:24.897Z,0.90
2023-12-18T01:14:52.297Z,0.90
2023-12-18T01:17:27.205Z,0.80
2023-12-18T01:19:59.867Z,0.60
2023-12-18T01:22:27.212Z,0.60
2023-12-18T01:24:54.441Z,0.60
2023-12-18T01:27:21.680Z,0.80
2023-12-18T01:29:48.900Z,0.80
2023-12-18T01:32:16.158Z,0.80
2023-12-18T01:34:43.371Z,0.80
2023-12-18T01:37:10.603Z,0.70
2023-12-18T01:39:37.927Z,0.60
2023-12-18T01:42:05.449Z,0.50
2023-12-18T01:44:32.697Z,0.20
2023-12-18T01:47:00.052Z,0.30
2023-12-18T01:49:27.760Z,0.40
2023-12-18T01:51:55.212Z,0.40
2023-12-18T01:54:24.023Z,0.40
2023-12-18T01:56:56.065Z,0.40
2023-12-18T01:59:25.346Z,0.60
2023-12-18T02:01:53.339Z,0.60
2023-12-18T02:04:21.266Z,0.60
2023-12-18T02:06:50.059Z,0.60
2023-12-18T02:09:17.486Z,0.60
2023-12-18T02:11:48.574Z,0.50
2023-12-18T02:14:15.811Z,0.50
2023-12-18T02:16:43.081Z,0.60
2023-12-18T02:19:30.620Z,0.50
2023-12-18T02:21:59.189Z,0.50
2023-12-18T02:24:26.905Z,0.40
2023-12-18T02:26:56.161Z,0.50
2023-12-18T02:29:23.358Z,0.50
2023-12-18T02:31:50.622Z,0.50
2023-12-18T02:34:18.082Z,0.30
2023-12-18T02:36:45.481Z,0.10
2023-12-18T02:39:12.746Z,0.20
2023-12-18T02:41:40.244Z,0.30
2023-12-18T02:44:07.602Z,0.40
2023-12-18T02:46:34.872Z,0.40
2023-12-18T02:49:02.175Z,0.30
2023-12-18T02:51:29.428Z,0.40
2023-12-18T02:53:56.675Z,0.40
2023-12-18T02:56:24.700Z,0.50
2023-12-18T02:58:52.195Z,0.50
2023-12-18T03:01:19.605Z,0.60
2023-12-18T03:03:47.084Z,0.50
2023-12-18T03:06:14.497Z,0.50
2023-12-18T03:08:42.605Z,0.20
2023-12-18T03:11:10.947Z,0.20
2023-12-18T03:13:38.169Z,0.20
2023-12-18T03:16:05.813Z,0.00
2023-12-18T03:18:33.136Z,0.10
2023-12-18T03:21:00.561Z,-0.10
2023-12-18T03:23:27.781Z,-0.20
2023-12-18T03:25:55.090Z,-0.30
2023-12-18T03:28:22.530Z,-0.40
2023-12-18T03:30:49.804Z,-0.40
2023-12-18T03:33:17.450Z,-0.30
2023-12-18T03:35:44.713Z,-0.40
2023-12-18T03:38:13.080Z,-0.50
2023-12-18T03:43:25.838Z,-0.50
2023-12-18T03:45:53.132Z,-0.50
2023-12-18T03:48:21.171Z,-0.50
2023-12-18T03:50:48.597Z,-0.50
2023-12-18T03:53:15.859Z,-0.50
2023-12-18T03:55:43.086Z,-0.40
2023-12-18T03:58:10.416Z,-0.40
2023-12-18T04:00:37.995Z,-0.40
2023-12-18T04:03:06.078Z,-0.40
2023-12-18T04:05:33.478Z,-0.30
2023-12-18T04:08:01.122Z,-0.30
2023-12-18T04:10:28.442Z,-0.40
2023-12-18T04:12:55.767Z,-0.40
2023-12-18T04:15:23.327Z,-0.30
2023-12-18T04:17:50.949Z,-0.30
2023-12-18T04:20:18.477Z,-0.70
2023-12-18T04:22:45.734Z,-0.70
2023-12-18T04:25:12.958Z,-0.70
2023-12-18T04:27:40.542Z,-0.60
2023-12-18T04:30:08.480Z,-0.70
2023-12-18T04:32:35.837Z,-0.70
2023-12-18T04:35:03.665Z,-0.70
2023-12-18T04:37:30.988Z,-0.70
2023-12-18T04:39:58.295Z,-0.90
2023-12-18T04:42:25.686Z,-0.80
2023-12-18T04:44:53.458Z,-0.70
2023-12-18T04:47:20.721Z,-0.70
2023-12-18T04:49:48.720Z,-0.60
2023-12-18T04:52:15.992Z,-0.50
2023-12-18T04:54:43.393Z,-0.40
2023-12-18T04:59:55.431Z,-0.50
2023-12-18T05:02:22.857Z,-0.40
2023-12-18T05:04:50.395Z,-0.40
2023-12-18T05:07:17.948Z,-0.30
2023-12-18T05:09:48.235Z,-0.20
2023-12-18T05:12:16.561Z,-0.10
2023-12-18T05:14:43.819Z,-0.10
2023-12-18T05:17:11.432Z,0.00
2023-12-18T05:19:38.795Z,0.00
2023-12-18T05:22:06.196Z,-0.20
2023-12-18T05:24:33.511Z,-0.20
2023-12-18T05:27:00.762Z,-0.20
2023-12-18T05:29:28.002Z,-0.30
2023-12-18T05:31:55.464Z,-0.50
2023-12-18T05:34:22.809Z,-0.40
2023-12-18T05:36:50.615Z,-0.40
2023-12-18T05:39:17.926Z,-0.30
2023-12-18T05:41:45.243Z,-0.30
2023-12-18T05:44:12.480Z,-0.20
2023-12-18T05:46:39.649Z,-0.20
2023-12-18T05:49:07.784Z,-0.20
2023-12-18T05:51:35.096Z,-0.20
2023-12-18T05:54:02.676Z,-0.10
2023-12-18T05:56:29.867Z,-0.20
2023-12-18T05:58:58.842Z,-0.50
2023-12-18T06:01:26.115Z,-0.50
2023-12-18T06:03:53.473Z,-0.50
2023-12-18T06:06:20.857Z,-0.40
2023-12-18T06:08:48.141Z,-0.40
2023-12-18T06:11:16.825Z,-0.50
2023-12-18T06:13:44.267Z,-0.20
2023-12-18T06:16:11.580Z,0.10
2023-12-18T06:18:39.299Z,0.00
2023-12-18T06:21:07.465Z,-0.10
2023-12-18T06:23:34.877Z,-0.10
2023-12-18T06:26:03.438Z,0.20
2023-12-18T06:28:31.214Z,0.30
2023-12-18T06:30:58.538Z,0.50
2023-12-18T06:33:26.146Z,0.30
2023-12-18T06:35:53.492Z,0.30
2023-12-18T06:38:20.826Z,0.20
2023-12-18T06:40:48.025Z,0.30
2023-12-18T06:43:15.269Z,0.20
2023-12-18T06:45:42.580Z,0.20
2023-12-18T06:48:09.974Z,0.20
2023-12-18T06:50:37.259Z,0.20
2023-12-18T06:53:04.597Z,0.10
2023-12-18T06:55:32.855Z,0.20
2023-12-18T06:58:00.079Z,0.20
2023-12-18T07:00:39.666Z,0.00
2023-12-18T07:03:09.048Z,0.00
2023-12-18T07:05:36.757Z,0.10
2023-12-18T07:08:04.368Z,0.20
2023-12-18T07:10:31.628Z,0.20
2023-12-18T07:12:58.908Z,0.10
2023-12-18T07:15:26.858Z,0.00
2023-12-18T07:17:54.519Z,0.00
2023-12-18T07:20:21.825Z,0.00
2023-12-18T07:22:49.214Z,0.10
2023-12-18T07:25:16.719Z,0.10
2023-12-18T07:27:46.068Z,0.20
2023-12-18T07:30:31.639Z,0.40
2023-12-18T07:32:59.112Z,0.60
2023-12-18T07:35:29.255Z,0.50
2023-12-18T07:37:56.586Z,0.60
2023-12-18T07:40:23.980Z,0.80
2023-12-18T07:42:51.294Z,1.00
2023-12-18T07:45:19.657Z,1.20
2023-12-18T07:47:46.950Z,1.30
2023-12-18T07:50:14.388Z,1.50
2023-12-18T07:52:41.855Z,1.70
2023-12-18T07:55:09.568Z,1.80
2023-12-18T07:57:36.931Z,1.80
2023-12-18T08:00:05.057Z,1.80
2023-12-18T08:02:32.352Z,2.00
2023-12-18T08:04:59.560Z,2.30
2023-12-18T08:07:26.757Z,2.50
2023-12-18T08:09:54.158Z,2.70
2023-12-18T08:12:21.513Z,3.00
2023-12-18T08:14:48.825Z,3.30
2023-12-18T08:17:16.621Z,3.20
2023-12-18T08:19:48.558Z,3.30
2023-12-18T08:22:16.423Z,3.50
2023-12-18T08:24:43.978Z,3.70
2023-12-18T08:27:11.359Z,3.70
2023-12-18T08:29:41.868Z,3.80
2023-12-18T08:32:09.069Z,3.90
2023-12-18T08:34:36.772Z,3.80
2023-12-18T08:37:05.052Z,4.00
2023-12-18T08:39:32.513Z,4.30
2023-12-18T08:42:00.049Z,4.40
2023-12-18T08:44:27.317Z,4.40
2023-12-18T08:46:54.861Z,4.40
2023-12-18T08:49:22.340Z,4.60
2023-12-18T08:51:49.699Z,4.70
2023-12-18T08:54:17.056Z,4.70
2023-12-18T08:56:44.315Z,4.80
2023-12-18T08:59:12.398Z,4.80
2023-12-18T09:01:39.876Z,4.80
2023-12-18T09:04:08.157Z,4.80
2023-12-18T09:06:38.896Z,4.90
2023-12-18T09:09:06.808Z,5.10
2023-12-18T09:11:35.466Z,5.10
2023-12-18T09:14:04.813Z,5.20
2023-12-18T09:16:32.955Z,5.10
2023-12-18T09:19:00.777Z,5.20
2023-12-18T09:21:28.279Z,5.40
2023-12-18T09:23:55.574Z,5.50
2023-12-18T09:26:22.889Z,5.50
2023-12-18T09:28:50.294Z,5.30
2023-12-18T09:31:18.532Z,5.70
2023-12-18T09:33:46.816Z,5.90
2023-12-18T09:36:14.288Z,6.00
2023-12-18T09:38:42.058Z,6.10
2023-12-18T09:41:09.669Z,6.30
2023-12-18T09:43:37.307Z,6.50
2023-12-18T09:46:05.797Z,6.80
2023-12-18T09:48:33.754Z,6.90
2023-12-18T09:51:02.637Z,7.00
2023-12-18T09:53:29.988Z,7.50
2023-12-18T09:55:58.237Z,7.60
2023-12-18T09:58:25.710Z,7.60
2023-12-18T10:00:53.867Z,6.80
2023-12-18T10:03:21.356Z,6.20
2023-12-18T10:05:48.835Z,6.30
2023-12-18T10:08:16.320Z,6.80
2023-12-18T10:10:46.697Z,7.10
2023-12-18T10:13:15.377Z,7.30
2023-12-18T10:15:43.908Z,7.40
2023-12-18T10:18:12.088Z,7.40
2023-12-18T10:20:42.318Z,7.50
2023-12-18T10:23:09.678Z,7.40
2023-12-18T10:25:38.703Z,7.30
2023-12-18T10:28:07.577Z,7.40
2023-12-18T10:30:38.168Z,7.50
2023-12-18T10:33:11.676Z,7.70
2023-12-18T10:35:40.635Z,7.60
2023-12-18T10:38:10.468Z,7.80
2023-12-18T10:40:39.125Z,8.00
2023-12-18T10:43:26.118Z,8.70
2023-12-18T10:45:55.457Z,8.70
2023-12-18T10:48:23.785Z,8.90
2023-12-18T10:50:53.292Z,9.30
2023-12-18T10:53:22.119Z,9.20
2023-12-18T10:55:50.522Z,9.70
2023-12-18T10:58:21.364Z,9.60
2023-12-18T11:00:50.639Z,11.20
2023-12-18T11:03:19.998Z,15.80
2023-12-18T11:05:50.455Z,17.20
2023-12-18T11:08:17.939Z,18.60
2023-12-18T11:10:46.352Z,20.10
2023-12-18T11:13:30.679Z,20.40
2023-12-18T11:16:18.420Z,20.90
2023-12-18T11:19:08.562Z,21.20
2023-12-18T11:21:43.381Z,21.60
2023-12-18T11:24:11.474Z,22.00
2023-12-18T11:26:39.554Z,19.40
2023-12-18T11:29:43.410Z,18.40
2023-12-18T11:32:45.134Z,19.60
2023-12-18T11:35:16.945Z,20.40
2023-12-18T11:37:50.484Z,19.30
2023-12-18T11:40:32.734Z,15.60
2023-12-18T11:43:00.452Z,11.70
2023-12-18T11:45:28.364Z,11.10
2023-12-18T11:48:02.210Z,11.20
2023-12-18T11:50:35.246Z,10.80
2023-12-18T11:53:06.788Z,11.60
2023-12-18T11:55:54.784Z,12.00
2023-12-18T11:58:26.958Z,11.90
2023-12-18T12:00:56.495Z,12.40
2023-12-18T12:03:23.907Z,12.20
2023-12-18T12:05:52.605Z,13.30
2023-12-18T12:08:20.106Z,15.50
2023-12-18T12:10:49.116Z,18.00
2023-12-18T12:13:20.945Z,19.90
2023-12-18T12:15:59.447Z,19.60
2023-12-18T12:18:31.969Z,22.00
2023-12-18T12:21:00.447Z,19.90
2023-12-18T12:23:28.774Z,21.10
2023-12-18T12:26:00.136Z,21.60
2023-12-18T12:28:30.894Z,22.20
2023-12-18T12:30:59.872Z,22.30
2023-12-18T12:33:39.643Z,21.90
2023-12-18T12:36:08.112Z,22.30
2023-12-18T12:38:41.216Z,21.90
2023-12-18T12:41:08.476Z,21.70
2023-12-18T12:43:35.736Z,21.30
2023-12-18T12:46:03.806Z,20.90
2023-12-18T12:48:32.847Z,21.30
2023-12-18T12:51:02.232Z,21.10
2023-12-18T12:53:32.036Z,21.30
2023-12-18T12:56:00.512Z,21.70
2023-12-18T12:58:34.779Z,19.30
2023-12-18T13:01:03.610Z,21.10
2023-12-18T13:03:31.737Z,21.80
2023-12-18T13:06:00.415Z,22.20
2023-12-18T13:08:27.696Z,22.60
2023-12-18T13:10:55.046Z,22.60
2023-12-18T13:13:22.514Z,23.00
2023-12-18T13:15:52.848Z,22.60
2023-12-18T13:18:20.373Z,22.90
2023-12-18T13:20:47.760Z,23.20
2023-12-18T13:23:15.772Z,22.70
2023-12-18T13:25:43.530Z,22.20
2023-12-18T13:28:11.119Z,22.10
2023-12-18T13:30:38.623Z,21.90
2023-12-18T13:33:06.098Z,21.70
2023-12-18T13:35:33.753Z,21.10
2023-12-18T13:38:01.258Z,20.70
2023-12-18T13:40:30.114Z,19.60
2023-12-18T13:42:57.572Z,19.40
2023-12-18T13:45:25.009Z,20.30
2023-12-18T13:47:53.353Z,20.60
2023-12-18T13:50:21.399Z,20.50
2023-12-18T13:52:50.048Z,20.30
2023-12-18T13:55:17.515Z,19.20
2023-12-18T13:57:48.846Z,18.70
2023-12-18T14:00:20.281Z,18.60
2023-12-18T14:02:49.449Z,18.30
2023-12-18T14:05:16.826Z,18.40
2023-12-18T14:07:44.370Z,18.20
2023-12-18T14:10:11.972Z,17.70
2023-12-18T14:12:39.321Z,17.30
2023-12-18T14:15:07.318Z,16.60
2023-12-18T14:17:34.836Z,16.50
2023-12-18T14:20:05.799Z,16.90
2023-12-18T14:22:34.418Z,16.60
2023-12-18T14:25:03.746Z,15.90
2023-12-18T14:27:33.659Z,15.20
2023-12-18T14:30:02.679Z,12.80
2023-12-18T14:32:29.967Z,11.30
2023-12-18T14:34:57.382Z,10.60
2023-12-18T14:37:24.948Z,10.20
2023-12-18T14:39:52.707Z,10.00
2023-12-18T14:42:20.004Z,9.70
2023-12-18T14:44:47.207Z,9.50
2023-12-18T14:47:14.509Z,9.40
2023-12-18T14:49:42.018Z,9.30
2023-12-18T14:52:09.486Z,9.10
2023-12-18T14:54:36.814Z,9.10
2023-12-18T14:57:04.457Z,8.90
2023-12-18T14:59:32.038Z,8.80
2023-12-18T15:02:00.815Z,8.60
2023-12-18T15:04:30.491Z,8.40
2023-12-18T15:06:59.610Z,8.30
2023-12-18T15:09:29.178Z,8.20
2023-12-18T15:11:57.096Z,8.10
2023-12-18T15:14:24.522Z,8.00
2023-12-18T15:16:51.814Z,8.00
2023-12-18T15:19:19.177Z,8.00
2023-12-18T15:21:46.507Z,8.00
2023-12-18T15:24:14.318Z,7.90
2023-12-18T15:26:41.661Z,7.90
2023-12-18T15:29:08.932Z,7.80
2023-12-18T15:31:36.565Z,7.70
2023-12-18T15:34:06.639Z,7.50
2023-12-18T15:36:34.783Z,7.50
2023-12-18T15:39:02.542Z,7.50
2023-12-18T15:41:32.526Z,7.20
2023-12-18T15:43:59.749Z,7.20
2023-12-18T15:46:27.058Z,7.20
2023-12-18T15:48:54.824Z,7.10
2023-12-18T15:51:22.392Z,7.00
2023-12-18T15:53:49.761Z,6.90
2023-12-18T15:56:17.166Z,7.00
2023-12-18T15:58:45.094Z,7.00
2023-12-18T16:01:15.675Z,7.00
2023-12-18T16:03:43.161Z,7.00
2023-12-18T16:06:12.083Z,7.00
2023-12-18T16:08:39.576Z,6.90
2023-12-18T16:11:06.872Z,6.90
2023-12-18T16:13:34.171Z,6.80
2023-12-18T16:16:01.948Z,6.90
2023-12-18T16:18:29.619Z,6.90
2023-12-18T16:20:57.297Z,6.80
2023-12-18T16:23:24.534Z,6.90
2023-12-18T16:25:51.737Z,6.90
2023-12-18T16:28:19.143Z,6.80
2023-12-18T16:30:56.571Z,6.80
2023-12-18T16:33:25.726Z,6.80
2023-12-18T16:35:53.367Z,6.70
2023-12-18T16:38:20.953Z,6.70
2023-12-18T16:40:54.745Z,6.80
2023-12-18T16:43:24.997Z,6.70
2023-12-18T16:45:52.277Z,6.80
2023-12-18T16:48:19.748Z,6.70
2023-12-18T16:50:49.985Z,6.60
2023-12-18T16:53:17.274Z,6.60
2023-12-18T16:55:44.640Z,6.40
2023-12-18T16:58:11.899Z,6.40
2023-12-18T17:00:39.386Z,6.50
2023-12-18T17:03:06.909Z,6.50
2023-12-18T17:05:35.847Z,6.50
2023-12-18T17:08:04.269Z,6.50
2023-12-18T17:10:32.169Z,6.60
2023-12-18T17:12:59.501Z,6.40
2023-12-18T17:15:30.679Z,6.40
2023-12-18T17:17:58.471Z,6.40
2023-12-18T17:20:26.814Z,6.40
2023-12-18T17:22:54.323Z,6.40
2023-12-18T17:25:21.628Z,6.30
2023-12-18T17:27:49.404Z,5.80
2023-12-18T17:30:16.996Z,5.70
2023-12-18T17:32:44.545Z,5.60
2023-12-18T17:35:12.865Z,5.60
2023-12-18T17:37:40.059Z,5.70
2023-12-18T17:40:08.015Z,5.60
2023-12-18T17:42:35.316Z,5.60
2023-12-18T17:45:02.690Z,5.60
2023-12-18T17:47:34.513Z,5.50
2023-12-18T17:50:02.268Z,5.60
2023-12-18T17:52:29.847Z,5.60
2023-12-18T17:54:57.193Z,5.60
2023-12-18T17:57:24.487Z,5.40
2023-12-18T17:59:54.493Z,5.50
2023-12-18T18:02:23.782Z,5.60
2023-12-18T18:04:51.254Z,5.70
2023-12-18T18:07:18.805Z,5.70
2023-12-18T18:09:46.106Z,5.60
2023-12-18T18:12:14.216Z,5.60
2023-12-18T18:14:41.411Z,5.60
2023-12-18T18:17:08.694Z,5.40
2023-12-18T18:19:35.968Z,5.40
2023-12-18T18:22:04.724Z,5.30
2023-12-18T18:24:33.433Z,5.30
2023-12-18T18:27:08.912Z,5.30
2023-12-18T18:29:38.520Z,5.20
2023-12-18T18:32:06.971Z,5.30
2023-12-18T18:34:35.346Z,5.30
2023-12-18T18:37:02.861Z,5.20
2023-12-18T18:39:30.168Z,5.10
2023-12-18T18:41:57.408Z,5.10
2023-12-18T18:47:10.109Z,5.20
2023-12-18T18:49:37.392Z,5.20
2023-12-18T18:52:07.573Z,5.20
2023-12-18T18:57:19.668Z,5.10
2023-12-18T18:59:47.385Z,5.00
2023-12-18T19:02:15.715Z,5.00
2023-12-18T19:04:43.275Z,5.00
2023-12-18T19:07:10.823Z,4.90
2023-12-18T19:09:38.097Z,4.80
2023-12-18T19:12:05.581Z,4.90
2023-12-18T19:14:33.237Z,5.00
2023-12-18T19:17:05.221Z,5.10
2023-12-18T19:19:35.683Z,5.10
2023-12-18T19:22:03.619Z,4.90
2023-12-18T19:24:32.709Z,4.90
2023-12-18T19:27:00.023Z,5.00
2023-12-18T19:29:27.270Z,5.00
2023-12-18T19:31:55.595Z,4.70
2023-12-18T19:34:22.975Z,4.70
2023-12-18T19:36:50.561Z,4.70
2023-12-18T19:39:18.308Z,4.60
2023-12-18T19:41:45.608Z,4.50
2023-12-18T19:44:15.560Z,4.50
2023-12-18T19:46:42.853Z,4.50
2023-12-18T19:49:10.313Z,4.40
2023-12-18T19:51:39.300Z,4.30
2023-12-18T19:54:06.789Z,4.20
2023-12-18T19:56:34.172Z,4.10
2023-12-18T19:59:01.735Z,4.00
2023-12-18T20:01:29.118Z,4.00
2023-12-18T20:03:56.473Z,4.20
2023-12-18T20:06:25.169Z,4.30
2023-12-18T20:08:53.999Z,4.30
2023-12-18T20:11:21.430Z,4.20
2023-12-18T20:13:49.743Z,4.10
2023-12-18T20:16:17.333Z,4.20
2023-12-18T20:18:44.784Z,4.20
2023-12-18T20:21:12.167Z,3.90
2023-12-18T20:23:39.503Z,3.80
2023-12-18T20:26:07.564Z,3.90
2023-12-18T20:28:34.838Z,3.80
2023-12-18T20:31:03.191Z,3.90
2023-12-18T20:33:30.802Z,4.00
2023-12-18T20:35:58.331Z,3.90
2023-12-18T20:38:25.743Z,3.90
2023-12-18T20:40:53.003Z,3.70
2023-12-18T20:43:20.255Z,3.70
2023-12-18T20:45:51.347Z,3.70
2023-12-18T20:48:22.308Z,3.70
2023-12-18T20:50:52.779Z,3.50
2023-12-18T20:53:20.108Z,3.70
2023-12-18T20:55:47.614Z,3.70
2023-12-18T20:58:14.879Z,3.70
2023-12-18T21:00:42.445Z,3.60
2023-12-18T21:03:09.841Z,3.40
2023-12-18T21:05:37.600Z,3.20
2023-12-18T21:08:06.480Z,3.10
2023-12-18T21:10:34.454Z,3.10
2023-12-18T21:13:04.067Z,3.30
2023-12-18T21:15:31.392Z,3.40
2023-12-18T21:18:01.758Z,3.40
2023-12-18T21:20:29.412Z,3.30
2023-12-18T21:22:56.873Z,3.40
2023-12-18T21:25:24.160Z,3.30
2023-12-18T21:27:51.626Z,3.40
2023-12-18T21:30:19.312Z,3.30
2023-12-18T21:32:47.018Z,3.30
2023-12-18T21:35:14.725Z,3.30
2023-12-18T21:37:42.228Z,3.30
2023-12-18T21:40:09.979Z,3.40
2023-12-18T21:42:37.344Z,3.20
2023-12-18T21:45:06.131Z,3.10
2023-12-18T21:47:33.385Z,3.20
2023-12-18T21:50:00.848Z,3.20
2023-12-18T21:52:28.490Z,3.00
2023-12-18T21:54:57.025Z,3.10
2023-12-18T21:57:24.282Z,2.80
2023-12-18T21:59:51.613Z,2.60
2023-12-18T22:02:18.990Z,2.70
2023-12-18T22:04:46.306Z,2.90
2023-12-18T22:07:13.657Z,3.00
2023-12-18T22:09:40.962Z,3.10
2023-12-18T22:12:08.830Z,3.10
2023-12-18T22:14:36.176Z,2.90
2023-12-18T22:17:04.243Z,2.70
2023-12-18T22:19:32.106Z,2.70
2023-12-18T22:21:59.546Z,2.80
2023-12-18T22:24:27.181Z,2.90
2023-12-18T22:26:54.572Z,3.00
2023-12-18T22:29:21.791Z,2.90
2023-12-18T22:31:49.063Z,2.90
2023-12-18T22:34:16.515Z,2.80
2023-12-18T22:36:44.117Z,2.80
2023-12-18T22:39:12.171Z,2.70
2023-12-18T22:41:41.659Z,2.60
2023-12-18T22:44:09.597Z,2.80
2023-12-18T22:46:38.688Z,3.00
2023-12-18T22:49:06.194Z,2.80
2023-12-18T22:51:33.624Z,2.70
2023-12-18T22:54:00.977Z,2.60
2023-12-18T22:56:28.367Z,2.50
2023-12-18T22:58:56.212Z,2.60
2023-12-18T23:01:23.609Z,2.50
2023-12-18T23:03:51.184Z,2.50
2023-12-18T23:06:18.629Z,2.60
2023-12-18T23:08:46.317Z,2.50
2023-12-18T23:11:13.668Z,2.40
2023-12-18T23:13:42.243Z,2.40
2023-12-18T23:16:09.663Z,2.40
2023-12-18T23:18:37.077Z,2.50
2023-12-18T23:21:05.826Z,2.60
2023-12-18T23:23:33.671Z,2.50
2023-12-18T23:26:01.383Z,2.50
2023-12-18T23:28:29.832Z,2.40
2023-12-18T23:30:57.350Z,2.40
2023-12-18T23:33:30.682Z,2.40
2023-12-18T23:35:59.802Z,2.30
2023-12-18T23:38:27.560Z,2.40
2023-12-18T23:40:54.995Z,2.50
2023-12-18T23:43:22.294Z,2.50
2023-12-18T23:45:49.751Z,2.30
2023-12-18T23:48:17.714Z,2.20
2023-12-18T23:50:45.964Z,2.20
2023-12-18T23:53:13.966Z,2.20
2023-12-18T23:55:41.561Z,2.30
2023-12-18T23:58:08.838Z,2.30
